createdAt,value
2023-08-12T00:02:17.237Z,93241.53
2023-08-12T00:04:43.775Z,93239.94
2023-08-12T00:07:10.623Z,93235.41
2023-08-12T00:09:37.288Z,93240.72
2023-08-12T00:12:04.008Z,93236.00
2023-08-12T00:14:30.782Z,93231.47
2023-08-12T00:16:57.776Z,93229.28
2023-08-12T00:19:24.223Z,93218.84
2023-08-12T00:21:53.332Z,93219.94
2023-08-12T00:24:19.806Z,93220.81
2023-08-12T00:26:46.356Z,93207.63
2023-08-12T00:29:12.800Z,93210.78
2023-08-12T00:31:39.266Z,93205.19
2023-08-12T00:34:05.819Z,93210.19
2023-08-12T00:36:32.293Z,93199.06
2023-08-12T00:38:58.797Z,93206.44
2023-08-12T00:41:25.260Z,93212.56
2023-08-12T00:43:51.736Z,93205.94
2023-08-12T00:46:18.535Z,93201.91
2023-08-12T00:48:45.046Z,93195.78
2023-08-12T00:51:11.585Z,93197.97
2023-08-12T00:53:38.419Z,93188.91
2023-08-12T00:56:05.333Z,93198.44
2023-08-12T00:58:32.168Z,93196.41
2023-08-12T01:01:00.562Z,93190.78
2023-08-12T01:03:27.482Z,93191.06
2023-08-12T01:05:54.039Z,93188.91
2023-08-12T01:08:20.482Z,93188.31
2023-08-12T01:10:53.476Z,93187.09
2023-08-12T01:13:53.275Z,93183.84
2023-08-12T01:16:22.278Z,93171.00
2023-08-12T01:18:51.077Z,93172.09
2023-08-12T01:21:18.315Z,93166.78
2023-08-12T01:23:45.818Z,93163.03
2023-08-12T01:26:12.309Z,93167.25
2023-08-12T01:28:38.757Z,93168.97
2023-08-12T01:31:13.194Z,93166.59
2023-08-12T01:33:53.765Z,93166.59
2023-08-12T01:36:22.409Z,93161.28
2023-08-12T01:38:52.339Z,93159.13
2023-08-12T01:41:21.687Z,93155.94
2023-08-12T01:43:48.441Z,93156.56
2023-08-12T01:46:16.347Z,93157.16
2023-08-12T01:48:42.817Z,93168.22
2023-08-12T01:51:09.422Z,93161.56
2023-08-12T01:53:35.958Z,93156.25
2023-08-12T01:56:02.412Z,93156.72
2023-08-12T01:58:28.986Z,93155.53
2023-08-12T02:00:55.577Z,93158.84
2023-08-12T02:03:22.194Z,93154.03
2023-08-12T02:05:48.822Z,93149.84
2023-08-12T02:08:15.323Z,93154.75
2023-08-12T02:10:41.815Z,93161.47
2023-08-12T02:13:08.370Z,93158.94
2023-08-12T02:15:35.136Z,93149.38
2023-08-12T02:18:01.848Z,93151.84
2023-08-12T02:20:28.505Z,93150.06
2023-08-12T02:22:54.975Z,93144.75
2023-08-12T02:25:21.441Z,93145.56
2023-08-12T02:27:47.917Z,93135.19
2023-08-12T02:30:14.494Z,93140.72
2023-08-12T02:32:44.453Z,93136.47
2023-08-12T02:35:11.645Z,93138.81
2023-08-12T02:37:38.086Z,93134.00
2023-08-12T02:40:08.600Z,93133.69
2023-08-12T02:42:35.062Z,93128.84
2023-08-12T02:45:01.620Z,93131.66
2023-08-12T02:47:28.761Z,93127.22
2023-08-12T02:49:55.307Z,93129.88
2023-08-12T02:52:21.817Z,93132.53
2023-08-12T02:54:48.470Z,93122.81
2023-08-12T02:57:14.952Z,93119.38
2023-08-12T02:59:41.504Z,93117.31
2023-08-12T03:02:08.128Z,93112.97
2023-08-12T03:04:34.611Z,93110.00
2023-08-12T03:07:01.119Z,93104.38
2023-08-12T03:09:28.623Z,93106.91
2023-08-12T03:11:55.094Z,93113.03
2023-08-12T03:14:22.850Z,93115.50
2023-08-12T03:16:49.362Z,93110.00
2023-08-12T03:19:15.862Z,93116.22
2023-08-12T03:21:43.236Z,93104.63
2023-08-12T03:24:09.688Z,93113.69
2023-08-12T03:26:37.132Z,93110.50
2023-08-12T03:29:03.735Z,93101.47
2023-08-12T03:31:30.358Z,93105.72
2023-08-12T03:33:57.489Z,93108.38
2023-08-12T03:36:23.985Z,93112.69
2023-08-12T03:38:50.520Z,93114.50
2023-08-12T03:41:21.669Z,93116.97
2023-08-12T03:43:48.817Z,93110.41
2023-08-12T03:46:18.845Z,93116.28
2023-08-12T03:48:46.133Z,93108.44
2023-08-12T03:51:12.740Z,93104.78
2023-08-12T03:53:39.333Z,93109.28
2023-08-12T03:56:06.408Z,93114.31
2023-08-12T03:58:33.593Z,93118.56
2023-08-12T04:01:00.374Z,93113.53
2023-08-12T04:03:26.949Z,93114.84
2023-08-12T04:05:53.930Z,93114.31
2023-08-12T04:08:23.914Z,93112.75
2023-08-12T04:10:51.841Z,93113.53
2023-08-12T04:13:18.640Z,93119.63
2023-08-12T04:15:50.509Z,93116.97
2023-08-12T04:18:17.085Z,93115.09
2023-08-12T04:20:43.539Z,93111.09
2023-08-12T04:23:09.996Z,93110.56
2023-08-12T04:25:36.599Z,93107.81
2023-08-12T04:28:03.208Z,93109.59
2023-08-12T04:30:32.025Z,93107.41
2023-08-12T04:32:58.608Z,93110.19
2023-08-12T04:35:27.927Z,93114.72
2023-08-12T04:37:55.400Z,93107.81
2023-08-12T04:40:23.534Z,93111.09
2023-08-12T04:42:49.981Z,93102.50
2023-08-12T04:45:16.589Z,93104.47
2023-08-12T04:47:43.300Z,93106.88
2023-08-12T04:50:12.623Z,93108.94
2023-08-12T04:52:39.159Z,93108.03
2023-08-12T04:55:06.121Z,93098.97
2023-08-12T04:57:32.599Z,93101.22
2023-08-12T04:59:59.081Z,93100.94
2023-08-12T05:02:26.005Z,93106.91
2023-08-12T05:04:53.051Z,93103.34
2023-08-12T05:07:21.438Z,93100.38
2023-08-12T05:09:47.985Z,93113.56
2023-08-12T05:12:16.362Z,93106.19
2023-08-12T05:14:42.874Z,93094.25
2023-08-12T05:17:09.618Z,93091.66
2023-08-12T05:19:37.065Z,93095.28
2023-08-12T05:22:03.846Z,93095.66
2023-08-12T05:24:30.341Z,93097.72
2023-08-12T05:26:57.172Z,93096.47
2023-08-12T05:29:23.656Z,93101.47
2023-08-12T05:31:50.209Z,93093.59
2023-08-12T05:34:16.896Z,93095.19
2023-08-12T05:36:43.373Z,93092.38
2023-08-12T05:39:10.057Z,93097.94
2023-08-12T05:41:36.719Z,93088.72
2023-08-12T05:44:03.285Z,93097.56
2023-08-12T05:46:29.737Z,93097.94
2023-08-12T05:48:56.290Z,93089.78
2023-08-12T05:51:22.783Z,93096.53
2023-08-12T05:53:49.924Z,93099.56
2023-08-12T05:56:16.485Z,93096.75
2023-08-12T05:58:42.940Z,93099.28
2023-08-12T06:01:09.402Z,93096.03
2023-08-12T06:03:35.927Z,93097.44
2023-08-12T06:06:02.407Z,93099.47
2023-08-12T06:08:28.868Z,93093.06
2023-08-12T06:10:55.330Z,93091.34
2023-08-12T06:13:21.773Z,93101.38
2023-08-12T06:15:48.250Z,93097.03
2023-08-12T06:18:14.770Z,93096.88
2023-08-12T06:20:41.617Z,93106.28
2023-08-12T06:23:08.134Z,93093.41
2023-08-12T06:25:37.068Z,93096.09
2023-08-12T06:28:05.575Z,93094.75
2023-08-12T06:30:32.060Z,93092.09
2023-08-12T06:32:58.546Z,93100.41
2023-08-12T06:35:24.996Z,93100.56
2023-08-12T06:37:51.528Z,93097.59
2023-08-12T06:40:18.268Z,93093.19
2023-08-12T06:42:44.746Z,93099.00
2023-08-12T06:45:11.514Z,93098.19
2023-08-12T06:47:38.154Z,93096.28
2023-08-12T06:50:05.060Z,93097.53
2023-08-12T06:52:31.500Z,93098.13
2023-08-12T06:54:58.031Z,93093.22
2023-08-12T06:57:24.504Z,93098.25
2023-08-12T06:59:51.040Z,93091.78
2023-08-12T07:02:17.748Z,93103.59
2023-08-12T07:04:44.203Z,93107.22
2023-08-12T07:07:10.741Z,93111.25
2023-08-12T07:09:37.237Z,93100.38
2023-08-12T07:12:05.016Z,93111.63
2023-08-12T07:14:31.462Z,93113.50
2023-08-12T07:16:57.937Z,93111.56
2023-08-12T07:19:24.420Z,93106.16
2023-08-12T07:21:50.901Z,93108.34
2023-08-12T07:24:17.369Z,93105.59
2023-08-12T07:26:43.946Z,93109.03
2023-08-12T07:29:11.042Z,93097.91
2023-08-12T07:31:37.510Z,93097.53
2023-08-12T07:34:04.092Z,93104.06
2023-08-12T07:36:30.564Z,93101.59
2023-08-12T07:38:57.163Z,93102.75
2023-08-12T07:41:23.816Z,93101.56
2023-08-12T07:43:50.248Z,93095.34
2023-08-12T07:46:16.787Z,93102.81
2023-08-12T07:48:43.323Z,93103.97
2023-08-12T07:51:10.222Z,93104.78
2023-08-12T07:53:36.692Z,93100.91
2023-08-12T07:56:03.229Z,93107.16
2023-08-12T07:58:31.067Z,93104.97
2023-08-12T08:00:57.537Z,93110.66
2023-08-12T08:03:24.046Z,93101.94
2023-08-12T08:05:50.501Z,93106.19
2023-08-12T08:08:16.941Z,93108.09
2023-08-12T08:10:43.375Z,93107.66
2023-08-12T08:13:09.874Z,93112.69
2023-08-12T08:15:36.408Z,93111.78
2023-08-12T08:18:05.213Z,93123.22
2023-08-12T08:20:32.090Z,93123.66
2023-08-12T08:22:58.606Z,93119.41
2023-08-12T08:25:25.071Z,93114.69
2023-08-12T08:27:51.583Z,93120.72
2023-08-12T08:30:18.144Z,93116.13
2023-08-12T08:32:44.629Z,93121.50
2023-08-12T08:35:11.264Z,93129.00
2023-08-12T08:37:37.746Z,93140.41
2023-08-12T08:40:04.552Z,93145.22
2023-08-12T08:42:32.253Z,93154.50
2023-08-12T08:45:02.523Z,93162.75
2023-08-12T08:47:29.145Z,93165.44
2023-08-12T08:49:59.727Z,93164.31
2023-08-12T08:52:27.017Z,93144.59
2023-08-12T08:54:54.241Z,93151.00
2023-08-12T08:57:24.983Z,93171.72
2023-08-12T08:59:58.789Z,93164.63
2023-08-12T09:02:26.276Z,93191.50
2023-08-12T09:04:53.927Z,93175.06
2023-08-12T09:07:21.941Z,93161.28
2023-08-12T09:09:50.467Z,93142.72
2023-08-12T09:12:17.802Z,93132.47
2023-08-12T09:14:44.765Z,93131.75
2023-08-12T09:17:11.493Z,93120.91
2023-08-12T09:19:38.179Z,93101.72
2023-08-12T09:22:06.441Z,93152.28
2023-08-12T09:24:33.231Z,93167.97
2023-08-12T09:26:59.748Z,93169.34
2023-08-12T09:29:33.897Z,93142.56
2023-08-12T09:32:20.041Z,93131.63
2023-08-12T09:34:50.707Z,93136.97
2023-08-12T09:37:17.195Z,93140.50
2023-08-12T09:39:44.001Z,93142.69
2023-08-12T09:42:11.248Z,93133.38
2023-08-12T09:44:41.407Z,93135.56
2023-08-12T09:47:09.330Z,93139.50
2023-08-12T09:49:36.531Z,93152.91
2023-08-12T09:52:04.656Z,93157.41
2023-08-12T09:54:34.567Z,93158.84
2023-08-12T09:57:02.333Z,93152.88
2023-08-12T09:59:36.302Z,93124.38
2023-08-12T10:02:08.356Z,93121.59
2023-08-12T10:04:45.715Z,93139.25
2023-08-12T10:07:15.842Z,93150.88
2023-08-12T10:09:43.850Z,93151.38
2023-08-12T10:12:11.570Z,93146.00
2023-08-12T10:14:39.341Z,93154.94
2023-08-12T10:17:06.859Z,93153.25
2023-08-12T10:19:34.917Z,93154.84
2023-08-12T10:22:04.380Z,93146.53
2023-08-12T10:24:31.200Z,93150.44
2023-08-12T10:26:57.715Z,93146.88
2023-08-12T10:29:25.609Z,93153.38
2023-08-12T10:31:52.518Z,93153.50
2023-08-12T10:34:26.211Z,93151.00
2023-08-12T10:37:04.060Z,93151.13
2023-08-12T10:39:35.178Z,93139.03
2023-08-12T10:42:01.969Z,93136.44
2023-08-12T10:44:55.276Z,93136.66
2023-08-12T10:47:21.801Z,93135.88
2023-08-12T10:49:54.147Z,93139.00
2023-08-12T10:52:30.967Z,93144.56
2023-08-12T10:55:27.080Z,93142.16
2023-08-12T10:57:59.001Z,93138.25
2023-08-12T11:00:28.177Z,93143.28
2023-08-12T11:02:57.578Z,93140.03
2023-08-12T11:05:25.527Z,93137.19
2023-08-12T11:08:03.094Z,93135.38
2023-08-12T11:10:36.365Z,93134.03
2023-08-12T11:13:04.386Z,93128.81
2023-08-12T11:15:33.010Z,93125.34
2023-08-12T11:18:00.190Z,93128.59
2023-08-12T11:20:30.191Z,93131.16
2023-08-12T11:22:59.370Z,93133.19
2023-08-12T11:25:26.531Z,93135.47
2023-08-12T11:27:52.985Z,93130.13
2023-08-12T11:30:21.360Z,93128.09
2023-08-12T11:32:48.986Z,93131.50
2023-08-12T11:35:16.905Z,93139.03
2023-08-12T11:37:46.292Z,93131.81
2023-08-12T11:40:15.653Z,93136.13
2023-08-12T11:42:45.514Z,93148.66
2023-08-12T11:45:12.677Z,93160.44
2023-08-12T11:47:41.117Z,93169.44
2023-08-12T11:50:12.057Z,93167.44
2023-08-12T11:52:39.777Z,93182.59
2023-08-12T11:55:07.246Z,93207.47
2023-08-12T11:57:35.497Z,93205.16
2023-08-12T12:00:06.188Z,93213.78
2023-08-12T12:02:47.828Z,93195.53
2023-08-12T12:05:14.644Z,93170.44
2023-08-12T12:07:41.296Z,93167.41
2023-08-12T12:10:08.616Z,93145.00
2023-08-12T12:12:36.747Z,93124.56
2023-08-12T12:15:04.696Z,93129.13
2023-08-12T12:17:31.307Z,93125.66
2023-08-12T12:20:00.020Z,93122.97
2023-08-12T12:22:30.589Z,93111.59
2023-08-12T12:25:01.324Z,93114.09
2023-08-12T12:27:28.335Z,93114.13
2023-08-12T12:29:55.121Z,93110.81
2023-08-12T12:32:22.330Z,93114.75
2023-08-12T12:34:49.015Z,93114.47
2023-08-12T12:37:15.739Z,93118.38
2023-08-12T12:39:42.723Z,93133.34
2023-08-12T12:42:09.660Z,93128.31
2023-08-12T12:44:36.208Z,93131.56
2023-08-12T12:47:03.705Z,93130.47
2023-08-12T12:49:30.200Z,93135.25
2023-08-12T12:51:56.962Z,93135.28
2023-08-12T12:54:23.496Z,93145.28
2023-08-12T12:56:50.003Z,93135.59
2023-08-12T12:59:16.644Z,93138.81
2023-08-12T13:01:43.236Z,93137.91
2023-08-12T13:04:09.786Z,93132.75
2023-08-12T13:06:36.950Z,93130.22
2023-08-12T13:09:03.769Z,93138.03
2023-08-12T13:11:30.534Z,93134.38
2023-08-12T13:13:56.974Z,93128.38
2023-08-12T13:16:23.443Z,93124.03
2023-08-12T13:18:49.910Z,93123.41
2023-08-12T13:21:19.182Z,93118.34
2023-08-12T13:23:45.940Z,93112.19
2023-08-12T13:26:12.527Z,93112.34
2023-08-12T13:28:38.956Z,93118.72
2023-08-12T13:31:05.475Z,93119.69
2023-08-12T13:33:31.948Z,93111.53
2023-08-12T13:35:58.410Z,93118.94
2023-08-12T13:38:24.897Z,93111.81
2023-08-12T13:40:51.383Z,93117.69
2023-08-12T13:43:17.835Z,93111.84
2023-08-12T13:45:44.323Z,93115.59
2023-08-12T13:48:10.789Z,93118.16
2023-08-12T13:50:37.813Z,93111.53
2023-08-12T13:53:04.468Z,93111.84
2023-08-12T13:55:30.920Z,93104.22
2023-08-12T13:57:57.352Z,93098.50
2023-08-12T14:00:25.295Z,93095.47
2023-08-12T14:02:52.430Z,93090.03
2023-08-12T14:05:19.029Z,93091.19
2023-08-12T14:07:45.583Z,93090.75
2023-08-12T14:10:12.040Z,93093.16
2023-08-12T14:12:38.676Z,93082.88
2023-08-12T14:15:05.757Z,93088.25
2023-08-12T14:17:32.294Z,93083.47
2023-08-12T14:20:01.694Z,93087.53
2023-08-12T14:22:29.013Z,93090.56
2023-08-12T14:27:22.929Z,93090.44
2023-08-12T14:29:49.714Z,93081.44
2023-08-12T14:32:17.651Z,93079.06
2023-08-12T14:34:46.284Z,93076.44
2023-08-12T14:37:13.681Z,93088.09
2023-08-12T14:39:40.550Z,93076.97
2023-08-12T14:42:09.372Z,93085.06
2023-08-12T14:44:37.364Z,93082.84
2023-08-12T14:47:05.034Z,93077.06
2023-08-12T14:49:31.483Z,93079.69
2023-08-12T14:51:57.994Z,93069.13
2023-08-12T14:54:24.560Z,93084.38
2023-08-12T14:56:51.020Z,93070.22
2023-08-12T14:59:17.489Z,93070.63
2023-08-12T15:01:43.925Z,93069.28
2023-08-12T15:04:10.384Z,93070.59
2023-08-12T15:06:36.858Z,93056.91
2023-08-12T15:09:03.570Z,93042.78
2023-08-12T15:11:30.038Z,93036.91
2023-08-12T15:13:56.501Z,93037.94
2023-08-12T15:16:22.988Z,93036.84
2023-08-12T15:18:49.506Z,93031.28
2023-08-12T15:21:17.159Z,93033.03
2023-08-12T15:23:43.642Z,93047.88
2023-08-12T15:26:10.108Z,93039.03
2023-08-12T15:28:36.638Z,93037.97
2023-08-12T15:31:03.172Z,93042.81
2023-08-12T15:33:29.793Z,93052.38
2023-08-12T15:35:56.388Z,93057.19
2023-08-12T15:38:22.872Z,93068.84
2023-08-12T15:40:49.378Z,93075.84
2023-08-12T15:43:15.816Z,93078.00
2023-08-12T15:45:43.421Z,93073.06
2023-08-12T15:48:10.117Z,93075.31
2023-08-12T15:50:36.735Z,93083.59
2023-08-12T15:53:04.094Z,93071.75
2023-08-12T15:55:30.742Z,93068.69
2023-08-12T15:57:57.246Z,93067.72
2023-08-12T16:00:23.950Z,93078.72
2023-08-12T16:02:51.162Z,93073.50
2023-08-12T16:05:18.026Z,93086.13
2023-08-12T16:07:44.521Z,93084.47
2023-08-12T16:10:11.080Z,93088.59
2023-08-12T16:12:37.573Z,93091.31
2023-08-12T16:15:04.324Z,93098.25
2023-08-12T16:17:30.808Z,93108.88
2023-08-12T16:19:57.386Z,93118.84
2023-08-12T16:22:23.841Z,93113.31
2023-08-12T16:24:50.333Z,93108.22
2023-08-12T16:27:16.982Z,93101.75
2023-08-12T16:29:43.431Z,93100.44
2023-08-12T16:32:09.892Z,93111.75
2023-08-12T16:34:36.401Z,93115.44
2023-08-12T16:39:36.014Z,93112.31
2023-08-12T16:42:02.560Z,93104.94
2023-08-12T16:44:29.050Z,93104.72
2023-08-12T16:46:55.548Z,93117.16
2023-08-12T16:49:22.091Z,93122.06
2023-08-12T16:51:48.560Z,93114.59
2023-08-12T16:54:15.090Z,93116.97
2023-08-12T16:56:41.548Z,93118.56
2023-08-12T16:59:08.077Z,93111.13
2023-08-12T17:01:34.604Z,93115.78
2023-08-12T17:04:02.620Z,93125.94
2023-08-12T17:06:29.153Z,93128.25
2023-08-12T17:08:55.604Z,93125.00
2023-08-12T17:11:22.057Z,93123.03
2023-08-12T17:13:48.554Z,93113.69
2023-08-12T17:16:15.072Z,93114.16
2023-08-12T17:18:41.577Z,93111.09
2023-08-12T17:21:08.667Z,93118.94
2023-08-12T17:23:35.195Z,93115.53
2023-08-12T17:26:01.636Z,93117.78
2023-08-12T17:28:28.104Z,93123.72
2023-08-12T17:30:54.618Z,93115.81
2023-08-12T17:33:21.151Z,93104.69
2023-08-12T17:35:47.625Z,93101.16
2023-08-12T17:38:14.206Z,93096.25
2023-08-12T17:40:40.715Z,93110.28
2023-08-12T17:43:07.185Z,93108.63
2023-08-12T17:45:33.686Z,93112.06
2023-08-12T17:48:04.086Z,93101.53
2023-08-12T17:50:31.005Z,93108.72
2023-08-12T17:52:57.528Z,93108.63
2023-08-12T17:55:24.000Z,93115.75
2023-08-12T17:57:50.487Z,93119.09
2023-08-12T18:00:18.216Z,93137.16
2023-08-12T18:02:44.855Z,93126.03
2023-08-12T18:05:11.422Z,93116.13
2023-08-12T18:07:37.997Z,93122.56
2023-08-12T18:10:04.727Z,93114.81
2023-08-12T18:12:31.367Z,93111.38
2023-08-12T18:14:57.851Z,93112.19
2023-08-12T18:17:25.139Z,93111.50
2023-08-12T18:19:51.865Z,93123.72
2023-08-12T18:22:18.996Z,93147.19
2023-08-12T18:24:45.596Z,93153.06
2023-08-12T18:27:12.537Z,93148.19
2023-08-12T18:29:40.563Z,93149.06
2023-08-12T18:32:07.023Z,93149.97
2023-08-12T18:34:33.472Z,93169.88
2023-08-12T18:36:59.941Z,93175.19
2023-08-12T18:39:26.437Z,93165.25
2023-08-12T18:41:52.925Z,93160.66
2023-08-12T18:44:19.368Z,93168.25
2023-08-12T18:46:45.971Z,93174.09
2023-08-12T18:49:14.132Z,93175.22
2023-08-12T18:51:40.629Z,93173.97
2023-08-12T18:54:07.267Z,93180.66
2023-08-12T18:56:33.845Z,93191.41
2023-08-12T18:59:00.295Z,93175.75
2023-08-12T19:01:26.756Z,93174.63
2023-08-12T19:03:53.219Z,93182.22
2023-08-12T19:06:19.741Z,93182.22
2023-08-12T19:08:46.209Z,93195.16
2023-08-12T19:11:12.739Z,93189.44
2023-08-12T19:13:39.179Z,93193.75
2023-08-12T19:16:05.738Z,93191.00
2023-08-12T19:18:32.373Z,93195.47
2023-08-12T19:20:58.838Z,93199.03
2023-08-12T19:23:25.289Z,93199.25
2023-08-12T19:25:53.639Z,93201.13
2023-08-12T19:28:20.081Z,93200.53
2023-08-12T19:30:50.593Z,93198.44
2023-08-12T19:33:19.131Z,93207.25
2023-08-12T19:35:46.414Z,93205.31
2023-08-12T19:38:14.372Z,93198.28
2023-08-12T19:40:41.087Z,93203.34
2023-08-12T19:43:08.036Z,93197.53
2023-08-12T19:45:34.596Z,93196.78
2023-08-12T19:48:01.147Z,93204.66
2023-08-12T19:50:28.482Z,93197.59
2023-08-12T19:52:55.162Z,93196.56
2023-08-12T19:55:21.783Z,93198.78
2023-08-12T19:57:48.305Z,93200.34
2023-08-12T20:00:15.233Z,93205.56
2023-08-12T20:02:43.293Z,93213.47
2023-08-12T20:05:17.163Z,93203.09
2023-08-12T20:07:48.328Z,93209.78
2023-08-12T20:10:20.246Z,93198.31
2023-08-12T20:12:47.432Z,93208.63
2023-08-12T20:15:14.066Z,93212.13
2023-08-12T20:17:41.236Z,93211.22
2023-08-12T20:20:13.041Z,93208.19
2023-08-12T20:22:59.155Z,93210.56
2023-08-12T20:25:30.535Z,93210.88
2023-08-12T20:27:58.930Z,93212.91
2023-08-12T20:30:26.342Z,93205.53
2023-08-12T20:32:52.978Z,93204.59
2023-08-12T20:35:19.510Z,93207.00
2023-08-12T20:37:45.949Z,93209.53
2023-08-12T20:40:12.661Z,93208.16
2023-08-12T20:42:39.128Z,93207.19
2023-08-12T20:45:05.917Z,93212.59
2023-08-12T20:47:32.400Z,93206.31
2023-08-12T20:49:58.977Z,93210.56
2023-08-12T20:52:25.423Z,93216.88
2023-08-12T20:54:53.251Z,93220.66
2023-08-12T20:57:20.008Z,93222.56
2023-08-12T20:59:47.523Z,93224.94
2023-08-12T21:02:14.409Z,93211.56
2023-08-12T21:04:41.096Z,93213.63
2023-08-12T21:07:07.640Z,93214.38
2023-08-12T21:09:34.395Z,93214.09
2023-08-12T21:12:03.318Z,93219.72
2023-08-12T21:14:29.861Z,93214.75
2023-08-12T21:16:56.321Z,93211.28
2023-08-12T21:19:22.823Z,93213.34
2023-08-12T21:21:49.311Z,93207.53
2023-08-12T21:24:15.740Z,93211.25
2023-08-12T21:26:42.243Z,93205.63
2023-08-12T21:29:08.691Z,93205.78
2023-08-12T21:31:35.238Z,93206.88
2023-08-12T21:34:01.758Z,93213.78
2023-08-12T21:36:28.236Z,93209.22
2023-08-12T21:38:54.742Z,93209.09
2023-08-12T21:41:21.216Z,93209.09
2023-08-12T21:43:48.354Z,93211.28
2023-08-12T21:46:14.936Z,93214.25
2023-08-12T21:48:41.431Z,93218.66
2023-08-12T21:51:09.644Z,93215.97
2023-08-12T21:53:36.141Z,93211.25
2023-08-12T21:56:02.623Z,93211.38
2023-08-12T21:58:29.084Z,93203.84
2023-08-12T22:00:58.519Z,93209.63
2023-08-12T22:03:25.040Z,93203.94
2023-08-12T22:05:52.046Z,93203.31
2023-08-12T22:08:18.556Z,93200.59
2023-08-12T22:10:45.570Z,93204.34
2023-08-12T22:13:12.174Z,93214.13
2023-08-12T22:15:38.898Z,93220.66
2023-08-12T22:18:05.917Z,93207.63
2023-08-12T22:20:32.520Z,93209.16
2023-08-12T22:22:58.983Z,93210.59
2023-08-12T22:25:25.573Z,93211.50
2023-08-12T22:27:52.243Z,93214.41
2023-08-12T22:30:18.791Z,93207.03
2023-08-12T22:32:45.851Z,93204.84
2023-08-12T22:35:12.432Z,93202.31
2023-08-12T22:37:38.903Z,93201.84
2023-08-12T22:40:06.346Z,93205.13
2023-08-12T22:42:32.835Z,93198.97
2023-08-12T22:44:59.308Z,93190.50
2023-08-12T22:47:25.831Z,93197.06
2023-08-12T22:49:52.313Z,93194.53
2023-08-12T22:52:18.771Z,93202.81
2023-08-12T22:54:45.231Z,93195.56
2023-08-12T22:57:11.700Z,93191.63
2023-08-12T22:59:38.141Z,93183.75
2023-08-12T23:02:04.768Z,93195.31
2023-08-12T23:04:31.280Z,93190.91
2023-08-12T23:06:57.746Z,93189.28
2023-08-12T23:09:24.238Z,93183.97
2023-08-12T23:11:50.779Z,93176.97
2023-08-12T23:14:17.319Z,93182.13
2023-08-12T23:16:43.884Z,93181.31
2023-08-12T23:19:12.259Z,93179.47
2023-08-12T23:21:39.119Z,93184.28
2023-08-12T23:24:06.000Z,93185.97
2023-08-12T23:26:32.438Z,93184.38
2023-08-12T23:28:58.909Z,93191.53
2023-08-12T23:31:25.429Z,93189.59
2023-08-12T23:33:52.002Z,93186.28
2023-08-12T23:36:19.235Z,93186.38
2023-08-12T23:38:45.968Z,93184.81
2023-08-12T23:41:12.909Z,93182.16
2023-08-12T23:43:39.390Z,93191.81
2023-08-12T23:46:06.059Z,93186.31
2023-08-12T23:48:32.584Z,93188.69
2023-08-12T23:50:59.026Z,93190.84
2023-08-12T23:53:25.571Z,93173.41
2023-08-12T23:55:52.054Z,93180.75
2023-08-12T23:58:18.491Z,93180.91
